sensor_id;sensor_type;location;lat;lon;timestamp;pressure;altitude;pressure_sealevel;temperature;humidity
71805;BME280;59654;52.216;5.616;2022-12-29T00:00:07;99746.22;;;9.13;97.95
71805;BME280;59654;52.216;5.616;2022-12-29T00:00:44;99748.81;;;9.14;98.59
71805;BME280;59654;52.216;5.616;2022-12-29T00:01:16;99736.53;;;9.12;97.93
71805;BME280;59654;52.216;5.616;2022-12-29T00:01:46;99745.28;;;9.14;97.12
71805;BME280;59654;52.216;5.616;2022-12-29T00:02:18;99746.31;;;9.11;97.69
71805;BME280;59654;52.216;5.616;2022-12-29T00:02:49;99741.84;;;9.12;97.05
71805;BME280;59654;52.216;5.616;2022-12-29T00:03:19;99739.19;;;9.12;97.03
71805;BME280;59654;52.216;5.616;2022-12-29T00:03:50;99736.53;;;9.12;97.30
71805;BME280;59654;52.216;5.616;2022-12-29T00:04:21;99736.47;;;9.13;97.52
71805;BME280;59654;52.216;5.616;2022-12-29T00:04:52;99734.59;;;9.15;96.76
71805;BME280;59654;52.216;5.616;2022-12-29T00:05:23;99744.44;;;9.13;96.67
71805;BME280;59654;52.216;5.616;2022-12-29T00:05:55;99728.56;;;9.12;96.92
71805;BME280;59654;52.216;5.616;2022-12-29T00:06:28;99731.22;;;9.12;96.79
71805;BME280;59654;52.216;5.616;2022-12-29T00:06:59;99728.78;;;9.07;96.44
71805;BME280;59654;52.216;5.616;2022-12-29T00:07:29;99723.38;;;9.09;97.47
71805;BME280;59654;52.216;5.616;2022-12-29T00:08:00;99727.78;;;9.10;96.82
71805;BME280;59654;52.216;5.616;2022-12-29T00:08:31;99721.59;;;9.09;96.62
71805;BME280;59654;52.216;5.616;2022-12-29T00:09:12;99718.06;;;9.09;96.21
71805;BME280;59654;52.216;5.616;2022-12-29T00:09:44;99721.66;;;9.08;96.34
71805;BME280;59654;52.216;5.616;2022-12-29T00:10:15;99711.97;;;9.07;96.74
71805;BME280;59654;52.216;5.616;2022-12-29T00:10:46;99719.78;;;9.10;97.27
71805;BME280;59654;52.216;5.616;2022-12-29T00:11:22;99709.06;;;9.11;96.61
71805;BME280;59654;52.216;5.616;2022-12-29T00:11:55;99717.69;;;9.16;97.20
71805;BME280;59654;52.216;5.616;2022-12-29T00:12:25;99712.28;;;9.18;96.76
71805;BME280;59654;52.216;5.616;2022-12-29T00:13:16;99713.13;;;9.18;96.46
71805;BME280;59654;52.216;5.616;2022-12-29T00:14:19;99716.66;;;9.19;96.35
71805;BME280;59654;52.216;5.616;2022-12-29T00:15:09;99706.00;;;9.19;96.19
71805;BME280;59654;52.216;5.616;2022-12-29T00:15:58;99723.00;;;9.16;96.46
71805;BME280;59654;52.216;5.616;2022-12-29T00:16:31;99710.56;;;9.17;95.65
71805;BME280;59654;52.216;5.616;2022-12-29T00:17:02;99714.09;;;9.17;96.06
71805;BME280;59654;52.216;5.616;2022-12-29T00:17:33;99707.75;;;9.20;96.02
71805;BME280;59654;52.216;5.616;2022-12-29T00:18:04;99711.19;;;9.22;95.98
71805;BME280;59654;52.216;5.616;2022-12-29T00:18:35;99711.19;;;9.22;95.79
71805;BME280;59654;52.216;5.616;2022-12-29T00:19:06;99702.28;;;9.23;96.01
71805;BME280;59654;52.216;5.616;2022-12-29T00:19:57;99709.31;;;9.24;95.48
71805;BME280;59654;52.216;5.616;2022-12-29T00:20:47;99696.88;;;9.24;95.68
71805;BME280;59654;52.216;5.616;2022-12-29T00:21:36;99696.78;;;9.26;95.34
71805;BME280;59654;52.216;5.616;2022-12-29T00:22:25;99704.69;;;9.27;94.69
71805;BME280;59654;52.216;5.616;2022-12-29T00:23:15;99706.56;;;9.25;94.98
71805;BME280;59654;52.216;5.616;2022-12-29T00:24:05;99703.84;;;9.27;95.45
71805;BME280;59654;52.216;5.616;2022-12-29T00:24:45;99698.38;;;9.30;95.35
71805;BME280;59654;52.216;5.616;2022-12-29T00:25:35;99698.38;;;9.30;94.59
71805;BME280;59654;52.216;5.616;2022-12-29T00:26:25;99697.59;;;9.28;94.58
71805;BME280;59654;52.216;5.616;2022-12-29T00:27:14;99696.88;;;9.24;94.42
71805;BME280;59654;52.216;5.616;2022-12-29T00:28:08;99695.06;;;9.25;94.31
71805;BME280;59654;52.216;5.616;2022-12-29T00:28:58;99693.19;;;9.27;95.26
71805;BME280;59654;52.216;5.616;2022-12-29T00:29:48;99688.81;;;9.26;94.94
71805;BME280;59654;52.216;5.616;2022-12-29T00:30:38;99695.88;;;9.27;95.48
71805;BME280;59654;52.216;5.616;2022-12-29T00:31:28;99686.16;;;9.26;95.22
71805;BME280;59654;52.216;5.616;2022-12-29T00:32:18;99694.00;;;9.29;94.71
71805;BME280;59654;52.216;5.616;2022-12-29T00:33:19;99692.03;;;9.33;94.74
71805;BME280;59654;52.216;5.616;2022-12-29T00:34:10;99686.59;;;9.34;94.84
71805;BME280;59654;52.216;5.616;2022-12-29T00:35:00;99691.84;;;9.36;94.85
71805;BME280;59654;52.216;5.616;2022-12-29T00:36:08;99696.16;;;9.38;94.49
71805;BME280;59654;52.216;5.616;2022-12-29T00:36:43;99678.56;;;9.36;93.85
71805;BME280;59654;52.216;5.616;2022-12-29T00:37:15;99679.59;;;9.33;94.36
71805;BME280;59654;52.216;5.616;2022-12-29T00:37:47;99678.63;;;9.34;94.51
71805;BME280;59654;52.216;5.616;2022-12-29T00:38:49;99677.69;;;9.35;94.44
71805;BME280;59654;52.216;5.616;2022-12-29T00:39:42;99679.34;;;9.38;94.76
71805;BME280;59654;52.216;5.616;2022-12-29T00:40:31;99672.06;;;9.41;94.24
71805;BME280;59654;52.216;5.616;2022-12-29T00:41:21;99678.31;;;9.40;93.65
71805;BME280;59654;52.216;5.616;2022-12-29T00:42:10;99685.28;;;9.43;94.45
71805;BME280;59654;52.216;5.616;2022-12-29T00:43:00;99683.25;;;9.48;93.84
71805;BME280;59654;52.216;5.616;2022-12-29T00:43:49;99678.00;;;9.46;93.51
71805;BME280;59654;52.216;5.616;2022-12-29T00:44:36;99681.53;;;9.47;93.56
71805;BME280;59654;52.216;5.616;2022-12-29T00:45:07;99670.81;;;9.48;93.42
71805;BME280;59654;52.216;5.616;2022-12-29T00:45:40;99679.53;;;9.50;93.73
71805;BME280;59654;52.216;5.616;2022-12-29T00:46:12;99675.00;;;9.52;93.70
71805;BME280;59654;52.216;5.616;2022-12-29T00:46:42;99671.34;;;9.55;93.29
71805;BME280;59654;52.216;5.616;2022-12-29T00:47:13;99668.66;;;9.55;93.40
71805;BME280;59654;52.216;5.616;2022-12-29T00:47:44;99671.41;;;9.53;92.97
71805;BME280;59654;52.216;5.616;2022-12-29T00:48:15;99673.13;;;9.54;93.22
71805;BME280;59654;52.216;5.616;2022-12-29T00:49:08;99672.19;;;9.55;93.33
71805;BME280;59654;52.216;5.616;2022-12-29T00:49:59;99667.66;;;9.57;93.46
71805;BME280;59654;52.216;5.616;2022-12-29T00:50:31;99676.50;;;9.58;92.97
71805;BME280;59654;52.216;5.616;2022-12-29T00:51:02;99679.09;;;9.59;92.85
71805;BME280;59654;52.216;5.616;2022-12-29T00:51:33;99673.69;;;9.61;92.70
71805;BME280;59654;52.216;5.616;2022-12-29T00:52:11;99668.19;;;9.64;93.13
71805;BME280;59654;52.216;5.616;2022-12-29T00:52:43;99662.97;;;9.63;92.13
71805;BME280;59654;52.216;5.616;2022-12-29T00:53:14;99673.75;;;9.59;92.33
71805;BME280;59654;52.216;5.616;2022-12-29T00:53:44;99671.09;;;9.59;92.78
71805;BME280;59654;52.216;5.616;2022-12-29T00:54:16;99666.72;;;9.58;92.38
71805;BME280;59654;52.216;5.616;2022-12-29T00:54:47;99671.03;;;9.61;92.93
71805;BME280;59654;52.216;5.616;2022-12-29T00:55:18;99668.44;;;9.59;92.95
71805;BME280;59654;52.216;5.616;2022-12-29T00:55:49;99656.94;;;9.59;92.28
71805;BME280;59654;52.216;5.616;2022-12-29T00:56:20;99653.41;;;9.58;92.52
71805;BME280;59654;52.216;5.616;2022-12-29T00:56:53;99657.00;;;9.57;93.14
71805;BME280;59654;52.216;5.616;2022-12-29T00:57:24;99650.97;;;9.54;92.91
71805;BME280;59654;52.216;5.616;2022-12-29T00:57:55;99658.97;;;9.54;92.90
71805;BME280;59654;52.216;5.616;2022-12-29T00:58:29;99653.72;;;9.52;92.83
71805;BME280;59654;52.216;5.616;2022-12-29T00:59:07;99650.91;;;9.55;92.60
71805;BME280;59654;52.216;5.616;2022-12-29T00:59:40;99654.50;;;9.54;92.68
71805;BME280;59654;52.216;5.616;2022-12-29T01:00:12;99659.91;;;9.53;92.50
71805;BME280;59654;52.216;5.616;2022-12-29T01:00:43;99649.34;;;9.51;92.58
71805;BME280;59654;52.216;5.616;2022-12-29T01:01:14;99652.78;;;9.53;92.94
71805;BME280;59654;52.216;5.616;2022-12-29T01:01:46;99647.38;;;9.55;93.13
71805;BME280;59654;52.216;5.616;2022-12-29T01:02:17;99650.03;;;9.55;93.01
71805;BME280;59654;52.216;5.616;2022-12-29T01:02:49;99650.91;;;9.55;92.34
71805;BME280;59654;52.216;5.616;2022-12-29T01:03:21;99647.31;;;9.56;92.80
71805;BME280;59654;52.216;5.616;2022-12-29T01:03:52;99648.25;;;9.55;92.56
71805;BME280;59654;52.216;5.616;2022-12-29T01:04:25;99642.94;;;9.55;91.99
71805;BME280;59654;52.216;5.616;2022-12-29T01:04:56;99641.19;;;9.54;92.13
71805;BME280;59654;52.216;5.616;2022-12-29T01:05:27;99634.16;;;9.53;92.68
71805;BME280;59654;52.216;5.616;2022-12-29T01:06:00;99639.25;;;9.58;92.74
71805;BME280;59654;52.216;5.616;2022-12-29T01:06:33;99643.72;;;9.57;93.04
71805;BME280;59654;52.216;5.616;2022-12-29T01:07:04;99640.19;;;9.57;92.06
71805;BME280;59654;52.216;5.616;2022-12-29T01:07:35;99640.19;;;9.57;92.38
71805;BME280;59654;52.216;5.616;2022-12-29T01:08:06;99638.53;;;9.54;91.55
71805;BME280;59654;52.216;5.616;2022-12-29T01:08:37;99651.84;;;9.54;92.75
71805;BME280;59654;52.216;5.616;2022-12-29T01:09:09;99635.03;;;9.54;92.23
71805;BME280;59654;52.216;5.616;2022-12-29T01:09:59;99632.63;;;9.49;92.38
71805;BME280;59654;52.216;5.616;2022-12-29T01:10:42;99631.75;;;9.49;92.58
71805;BME280;59654;52.216;5.616;2022-12-29T01:11:13;99643.34;;;9.48;92.93
71805;BME280;59654;52.216;5.616;2022-12-29T01:11:44;99644.38;;;9.45;92.96
71805;BME280;59654;52.216;5.616;2022-12-29T01:12:14;99637.31;;;9.44;92.97
71805;BME280;59654;52.216;5.616;2022-12-29T01:12:45;99639.03;;;9.45;92.54
71805;BME280;59654;52.216;5.616;2022-12-29T01:13:17;99640.75;;;9.46;92.49
71805;BME280;59654;52.216;5.616;2022-12-29T01:13:48;99644.22;;;9.48;92.64
71805;BME280;59654;52.216;5.616;2022-12-29T01:14:20;99638.88;;;9.48;92.87
71805;BME280;59654;52.216;5.616;2022-12-29T01:14:52;99632.69;;;9.48;92.71
71805;BME280;59654;52.216;5.616;2022-12-29T01:15:24;99638.88;;;9.48;92.72
71805;BME280;59654;52.216;5.616;2022-12-29T01:15:55;99642.56;;;9.46;93.01
71805;BME280;59654;52.216;5.616;2022-12-29T01:16:26;99632.00;;;9.44;93.49
71805;BME280;59654;52.216;5.616;2022-12-29T01:16:57;99639.97;;;9.44;93.33
71805;BME280;59654;52.216;5.616;2022-12-29T01:17:28;99640.06;;;9.43;93.12
71805;BME280;59654;52.216;5.616;2022-12-29T01:17:59;99637.47;;;9.41;93.51
71805;BME280;59654;52.216;5.616;2022-12-29T01:18:31;99634.81;;;9.41;94.41
71805;BME280;59654;52.216;5.616;2022-12-29T01:19:04;99626.75;;;9.43;93.70
71805;BME280;59654;52.216;5.616;2022-12-29T01:19:35;99629.56;;;9.40;93.71
71805;BME280;59654;52.216;5.616;2022-12-29T01:20:06;99623.41;;;9.39;94.14
71805;BME280;59654;52.216;5.616;2022-12-29T01:20:37;99622.38;;;9.42;94.24
71805;BME280;59654;52.216;5.616;2022-12-29T01:21:09;99620.66;;;9.41;93.95
71805;BME280;59654;52.216;5.616;2022-12-29T01:21:40;99621.50;;;9.41;93.71
71805;BME280;59654;52.216;5.616;2022-12-29T01:22:10;99625.03;;;9.42;94.06
71805;BME280;59654;52.216;5.616;2022-12-29T01:22:42;99617.75;;;9.45;94.50
71805;BME280;59654;52.216;5.616;2022-12-29T01:23:14;99618.69;;;9.44;93.58
71805;BME280;59654;52.216;5.616;2022-12-29T01:23:45;99610.63;;;9.46;93.97
71805;BME280;59654;52.216;5.616;2022-12-29T01:24:17;99619.56;;;9.45;93.08
71805;BME280;59654;52.216;5.616;2022-12-29T01:24:50;99619.47;;;9.46;93.36
71805;BME280;59654;52.216;5.616;2022-12-29T01:25:21;99618.63;;;9.46;93.32
71805;BME280;59654;52.216;5.616;2022-12-29T01:25:52;99626.53;;;9.47;93.07
71805;BME280;59654;52.216;5.616;2022-12-29T01:26:23;99620.25;;;9.48;93.24
71805;BME280;59654;52.216;5.616;2022-12-29T01:26:56;99612.44;;;9.45;93.12
71805;BME280;59654;52.216;5.616;2022-12-29T01:27:27;99623.94;;;9.46;93.78
71805;BME280;59654;52.216;5.616;2022-12-29T01:27:57;99619.63;;;9.43;94.20
71805;BME280;59654;52.216;5.616;2022-12-29T01:28:30;99617.75;;;9.45;93.64
71805;BME280;59654;52.216;5.616;2022-12-29T01:29:03;99620.41;;;9.45;94.50
71805;BME280;59654;52.216;5.616;2022-12-29T01:29:34;99627.63;;;9.43;94.06
71805;BME280;59654;52.216;5.616;2022-12-29T01:30:05;99628.63;;;9.41;94.76
71805;BME280;59654;52.216;5.616;2022-12-29T01:30:36;99620.88;;;9.36;95.86
71805;BME280;59654;52.216;5.616;2022-12-29T01:31:09;99620.97;;;9.35;95.63
71805;BME280;59654;52.216;5.616;2022-12-29T01:31:41;99625.44;;;9.34;96.17
71805;BME280;59654;52.216;5.616;2022-12-29T01:32:13;99620.22;;;9.33;96.07
71805;BME280;59654;52.216;5.616;2022-12-29T01:32:43;99623.91;;;9.30;96.00
71805;BME280;59654;52.216;5.616;2022-12-29T01:33:14;99631.94;;;9.29;96.19
71805;BME280;59654;52.216;5.616;2022-12-29T01:33:46;99619.66;;;9.26;96.73
71805;BME280;59654;52.216;5.616;2022-12-29T01:34:17;99621.38;;;9.27;96.33
71805;BME280;59654;52.216;5.616;2022-12-29T01:34:48;99609.97;;;9.25;96.87
71805;BME280;59654;52.216;5.616;2022-12-29T01:35:19;99627.66;;;9.26;96.66
71805;BME280;59654;52.216;5.616;2022-12-29T01:35:50;99609.19;;;9.23;96.85
71805;BME280;59654;52.216;5.616;2022-12-29T01:36:20;99611.75;;;9.24;96.79
71805;BME280;59654;52.216;5.616;2022-12-29T01:36:52;99617.16;;;9.23;97.86
71805;BME280;59654;52.216;5.616;2022-12-29T01:37:23;99603.94;;;9.21;98.09
71805;BME280;59654;52.216;5.616;2022-12-29T01:37:54;99604.81;;;9.22;97.47
71805;BME280;59654;52.216;5.616;2022-12-29T01:38:25;99614.50;;;9.23;98.25
71805;BME280;59654;52.216;5.616;2022-12-29T01:38:56;99620.59;;;9.25;98.28
71805;BME280;59654;52.216;5.616;2022-12-29T01:39:27;99615.28;;;9.25;98.37
71805;BME280;59654;52.216;5.616;2022-12-29T01:39:58;99614.50;;;9.23;98.24
71805;BME280;59654;52.216;5.616;2022-12-29T01:40:28;99596.97;;;9.19;97.44
71805;BME280;59654;52.216;5.616;2022-12-29T01:41:00;99604.44;;;9.12;98.31
71805;BME280;59654;52.216;5.616;2022-12-29T01:41:32;99602.78;;;9.10;98.60
71805;BME280;59654;52.216;5.616;2022-12-29T01:42:03;99618.81;;;9.08;98.34
71805;BME280;59654;52.216;5.616;2022-12-29T01:42:34;99602.00;;;9.08;98.85
71805;BME280;59654;52.216;5.616;2022-12-29T01:43:09;99601.31;;;9.04;98.91
71805;BME280;59654;52.216;5.616;2022-12-29T01:43:51;99614.00;;;8.99;100.00
71805;BME280;59654;52.216;5.616;2022-12-29T01:44:47;99606.09;;;8.98;100.00
71805;BME280;59654;52.216;5.616;2022-12-29T01:45:25;99602.66;;;8.96;100.00
71805;BME280;59654;52.216;5.616;2022-12-29T01:45:55;99611.50;;;8.96;100.00
71805;BME280;59654;52.216;5.616;2022-12-29T01:46:42;99602.66;;;8.96;100.00
71805;BME280;59654;52.216;5.616;2022-12-29T01:48:13;99596.94;;;8.86;100.00
71805;BME280;59654;52.216;5.616;2022-12-29T01:48:47;99601.38;;;8.85;100.00
71805;BME280;59654;52.216;5.616;2022-12-29T01:49:24;99613.75;;;8.86;100.00
71805;BME280;59654;52.216;5.616;2022-12-29T01:50:04;99626.28;;;8.84;100.00
71805;BME280;59654;52.216;5.616;2022-12-29T01:50:50;99615.66;;;8.84;100.00
71805;BME280;59654;52.216;5.616;2022-12-29T01:51:26;99613.75;;;8.86;100.00
71805;BME280;59654;52.216;5.616;2022-12-29T01:52:06;99614.78;;;8.84;100.00
71805;BME280;59654;52.216;5.616;2022-12-29T01:52:44;99613.84;;;8.85;100.00
71805;BME280;59654;52.216;5.616;2022-12-29T01:53:27;99611.19;;;8.85;100.00
71805;BME280;59654;52.216;5.616;2022-12-29T01:54:04;99609.22;;;8.88;100.00
71805;BME280;59654;52.216;5.616;2022-12-29T01:54:44;99607.56;;;8.86;100.00
71805;BME280;59654;52.216;5.616;2022-12-29T01:55:19;99610.16;;;8.87;100.00
71805;BME280;59654;52.216;5.616;2022-12-29T01:55:55;99600.28;;;8.89;100.00
71805;BME280;59654;52.216;5.616;2022-12-29T01:56:30;99606.41;;;8.91;100.00
71805;BME280;59654;52.216;5.616;2022-12-29T01:57:08;99602.03;;;8.90;100.00
71805;BME280;59654;52.216;5.616;2022-12-29T01:57:48;99604.91;;;8.86;100.00
71805;BME280;59654;52.216;5.616;2022-12-29T01:58:24;99603.22;;;8.85;100.00
71805;BME280;59654;52.216;5.616;2022-12-29T01:59:06;99604.31;;;8.81;100.00
71805;BME280;59654;52.216;5.616;2022-12-29T01:59:49;99609.69;;;8.79;100.00
71805;BME280;59654;52.216;5.616;2022-12-29T02:00:24;99609.75;;;8.78;100.00
71805;BME280;59654;52.216;5.616;2022-12-29T02:00:55;99616.00;;;8.77;100.00
71805;BME280;59654;52.216;5.616;2022-12-29T02:01:26;99611.56;;;8.77;100.00
71805;BME280;59654;52.216;5.616;2022-12-29T02:01:57;99615.94;;;8.78;100.00
71805;BME280;59654;52.216;5.616;2022-12-29T02:02:29;99615.00;;;8.79;100.00
71805;BME280;59654;52.216;5.616;2022-12-29T02:03:05;99611.63;;;8.76;100.00
71805;BME280;59654;52.216;5.616;2022-12-29T02:03:37;99630.16;;;8.77;100.00
71805;BME280;59654;52.216;5.616;2022-12-29T02:04:11;99617.81;;;8.76;100.00
71805;BME280;59654;52.216;5.616;2022-12-29T02:04:43;99607.19;;;8.76;100.00
71805;BME280;59654;52.216;5.616;2022-12-29T02:06:14;99617.31;;;8.68;100.00
71805;BME280;59654;52.216;5.616;2022-12-29T02:07:13;99625.97;;;8.72;100.00
71805;BME280;59654;52.216;5.616;2022-12-29T02:07:50;99633.78;;;8.75;100.00
71805;BME280;59654;52.216;5.616;2022-12-29T02:08:26;99625.81;;;8.75;100.00
71805;BME280;59654;52.216;5.616;2022-12-29T02:08:59;99632.91;;;8.76;100.00
71805;BME280;59654;52.216;5.616;2022-12-29T02:09:31;99634.47;;;8.80;100.00
71805;BME280;59654;52.216;5.616;2022-12-29T02:10:02;99629.16;;;8.80;100.00
71805;BME280;59654;52.216;5.616;2022-12-29T02:10:35;99630.94;;;8.79;100.00
71805;BME280;59654;52.216;5.616;2022-12-29T02:11:07;99637.06;;;8.81;100.00
71805;BME280;59654;52.216;5.616;2022-12-29T02:11:39;99625.63;;;8.79;100.00
71805;BME280;59654;52.216;5.616;2022-12-29T02:12:10;99629.22;;;8.78;100.00
71805;BME280;59654;52.216;5.616;2022-12-29T02:12:41;99630.16;;;8.77;100.00
71805;BME280;59654;52.216;5.616;2022-12-29T02:13:15;99632.81;;;8.77;100.00
71805;BME280;59654;52.216;5.616;2022-12-29T02:13:47;99631.03;;;8.78;100.00
71805;BME280;59654;52.216;5.616;2022-12-29T02:14:18;99622.03;;;8.80;100.00
71805;BME280;59654;52.216;5.616;2022-12-29T02:14:55;99629.06;;;8.81;100.00
71805;BME280;59654;52.216;5.616;2022-12-29T02:17:27;99616.66;;;8.82;100.00
71805;BME280;59654;52.216;5.616;2022-12-29T02:18:18;99618.31;;;8.84;100.00
71805;BME280;59654;52.216;5.616;2022-12-29T02:19:35;99626.09;;;8.87;100.00
71805;BME280;59654;52.216;5.616;2022-12-29T02:24:22;99640.50;;;8.83;100.00
71805;BME280;59654;52.216;5.616;2022-12-29T02:31:14;99637.66;;;8.86;100.00
71805;BME280;59654;52.216;5.616;2022-12-29T02:35:01;99631.59;;;8.84;100.00
71805;BME280;59654;52.216;5.616;2022-12-29T02:35:56;99620.16;;;8.82;100.00
71805;BME280;59654;52.216;5.616;2022-12-29T02:36:45;99630.88;;;8.81;100.00
71805;BME280;59654;52.216;5.616;2022-12-29T02:39:38;99633.47;;;8.82;100.00
71805;BME280;59654;52.216;5.616;2022-12-29T02:41:22;99640.31;;;8.86;100.00
71805;BME280;59654;52.216;5.616;2022-12-29T02:42:57;99629.63;;;8.88;100.00
71805;BME280;59654;52.216;5.616;2022-12-29T02:43:57;99625.16;;;8.88;100.00
71805;BME280;59654;52.216;5.616;2022-12-29T02:44:54;99633.06;;;8.90;100.00
71805;BME280;59654;52.216;5.616;2022-12-29T02:45:45;99616.50;;;8.85;99.48
71805;BME280;59654;52.216;5.616;2022-12-29T02:47:15;99630.53;;;8.87;100.00
71805;BME280;59654;52.216;5.616;2022-12-29T02:49:54;99625.22;;;8.87;98.96
71805;BME280;59654;52.216;5.616;2022-12-29T02:50:57;99613.75;;;8.86;98.62
71805;BME280;59654;52.216;5.616;2022-12-29T02:51:46;99610.16;;;8.87;98.03
71805;BME280;59654;52.216;5.616;2022-12-29T02:52:53;99602.97;;;8.89;98.10
71805;BME280;59654;52.216;5.616;2022-12-29T02:53:29;99609.22;;;8.88;98.17
71805;BME280;59654;52.216;5.616;2022-12-29T02:54:23;99615.53;;;8.86;97.04
71805;BME280;59654;52.216;5.616;2022-12-29T02:55:13;99605.00;;;8.84;97.21
71805;BME280;59654;52.216;5.616;2022-12-29T02:55:49;99608.59;;;8.83;96.88
71805;BME280;59654;52.216;5.616;2022-12-29T02:56:21;99610.31;;;8.84;96.92
71805;BME280;59654;52.216;5.616;2022-12-29T02:56:52;99619.16;;;8.85;97.48
71805;BME280;59654;52.216;5.616;2022-12-29T02:58:18;99607.75;;;8.83;97.09
71805;BME280;59654;52.216;5.616;2022-12-29T02:58:51;99609.22;;;8.88;97.66
71805;BME280;59654;52.216;5.616;2022-12-29T02:59:22;99609.06;;;8.91;96.98
71805;BME280;59654;52.216;5.616;2022-12-29T03:00:00;99606.25;;;8.95;96.89
71805;BME280;59654;52.216;5.616;2022-12-29T03:00:47;99611.50;;;8.96;96.08
71805;BME280;59654;52.216;5.616;2022-12-29T03:02:25;99605.31;;;8.96;95.71
71805;BME280;59654;52.216;5.616;2022-12-29T03:04:39;99606.63;;;8.87;96.54
71805;BME280;59654;52.216;5.616;2022-12-29T03:10:13;99610.78;;;8.93;96.21
71805;BME280;59654;52.216;5.616;2022-12-29T03:11:12;99603.03;;;8.88;95.77
71805;BME280;59654;52.216;5.616;2022-12-29T03:12:20;99606.53;;;8.88;96.67
71805;BME280;59654;52.216;5.616;2022-12-29T03:14:49;99621.56;;;8.89;96.37
71805;BME280;59654;52.216;5.616;2022-12-29T03:16:22;99617.97;;;8.90;96.11
71805;BME280;59654;52.216;5.616;2022-12-29T03:17:04;99605.31;;;8.96;95.33
71805;BME280;59654;52.216;5.616;2022-12-29T03:18:55;99608.28;;;8.89;95.00
71805;BME280;59654;52.216;5.616;2022-12-29T03:19:36;99610.41;;;8.83;95.72
71805;BME280;59654;52.216;5.616;2022-12-29T03:20:20;99620.00;;;8.85;95.96
71805;BME280;59654;52.216;5.616;2022-12-29T03:21:52;99610.16;;;8.87;95.30
71805;BME280;59654;52.216;5.616;2022-12-29T03:22:31;99609.13;;;8.90;94.77
71805;BME280;59654;52.216;5.616;2022-12-29T03:23:08;99622.41;;;8.90;95.65
71805;BME280;59654;52.216;5.616;2022-12-29T03:23:42;99617.03;;;8.91;95.65
71805;BME280;59654;52.216;5.616;2022-12-29T03:24:22;99626.72;;;8.93;95.84
71805;BME280;59654;52.216;5.616;2022-12-29T03:25:17;99612.72;;;8.89;95.55
71805;BME280;59654;52.216;5.616;2022-12-29T03:25:56;99626.09;;;8.87;95.67
71805;BME280;59654;52.216;5.616;2022-12-29T03:26:30;99615.53;;;8.86;95.60
71805;BME280;59654;52.216;5.616;2022-12-29T03:27:05;99628.06;;;8.84;95.17
71805;BME280;59654;52.216;5.616;2022-12-29T03:27:55;99628.75;;;8.87;95.17
71805;BME280;59654;52.216;5.616;2022-12-29T03:31:38;99613.22;;;8.80;95.66
71805;BME280;59654;52.216;5.616;2022-12-29T03:32:13;99614.84;;;8.82;95.92
71805;BME280;59654;52.216;5.616;2022-12-29T03:32:49;99602.44;;;8.83;96.67
71805;BME280;59654;52.216;5.616;2022-12-29T03:33:29;99607.03;;;8.79;96.26
71805;BME280;59654;52.216;5.616;2022-12-29T03:34:08;99611.41;;;8.80;96.76
71805;BME280;59654;52.216;5.616;2022-12-29T03:34:41;99607.81;;;8.81;96.01
71805;BME280;59654;52.216;5.616;2022-12-29T03:35:16;99611.41;;;8.80;96.80
71805;BME280;59654;52.216;5.616;2022-12-29T03:35:51;99614.00;;;8.82;95.87
71805;BME280;59654;52.216;5.616;2022-12-29T03:36:38;99605.75;;;8.86;96.42
71805;BME280;59654;52.216;5.616;2022-12-29T03:37:18;99596.19;;;8.84;96.92
71805;BME280;59654;52.216;5.616;2022-12-29T03:37:59;99613.84;;;8.85;95.98
71805;BME280;59654;52.216;5.616;2022-12-29T03:38:56;99600.06;;;8.77;97.25
71805;BME280;59654;52.216;5.616;2022-12-29T03:39:31;99585.09;;;8.74;96.54
71805;BME280;59654;52.216;5.616;2022-12-29T03:40:03;99602.91;;;8.72;97.08
71805;BME280;59654;52.216;5.616;2022-12-29T03:40:38;99597.94;;;8.66;96.74
71805;BME280;59654;52.216;5.616;2022-12-29T03:41:19;99600.50;;;8.68;97.39
71805;BME280;59654;52.216;5.616;2022-12-29T03:41:59;99605.72;;;8.69;97.07
71805;BME280;59654;52.216;5.616;2022-12-29T03:42:36;99591.69;;;8.67;96.87
71805;BME280;59654;52.216;5.616;2022-12-29T03:43:08;99589.19;;;8.64;96.93
71805;BME280;59654;52.216;5.616;2022-12-29T03:43:41;99596.50;;;8.59;96.83
71805;BME280;59654;52.216;5.616;2022-12-29T03:44:13;99595.66;;;8.58;97.20
71805;BME280;59654;52.216;5.616;2022-12-29T03:44:45;99604.41;;;8.61;97.44
71805;BME280;59654;52.216;5.616;2022-12-29T03:45:18;99597.28;;;8.61;96.86
71805;BME280;59654;52.216;5.616;2022-12-29T03:45:49;99597.28;;;8.61;97.38
71805;BME280;59654;52.216;5.616;2022-12-29T03:46:20;99596.50;;;8.59;97.07
71805;BME280;59654;52.216;5.616;2022-12-29T03:46:51;99592.78;;;8.63;97.05
71805;BME280;59654;52.216;5.616;2022-12-29T03:47:23;99581.44;;;8.60;97.34
71805;BME280;59654;52.216;5.616;2022-12-29T03:47:55;99580.56;;;8.59;96.40
71805;BME280;59654;52.216;5.616;2022-12-29T03:48:26;99589.31;;;8.61;97.00
71805;BME280;59654;52.216;5.616;2022-12-29T03:48:58;99595.44;;;8.63;96.96
71805;BME280;59654;52.216;5.616;2022-12-29T03:49:29;99589.09;;;8.66;96.90
71805;BME280;59654;52.216;5.616;2022-12-29T03:50:01;99591.59;;;8.69;96.39
71805;BME280;59654;52.216;5.616;2022-12-29T03:50:32;99605.72;;;8.69;96.61
71805;BME280;59654;52.216;5.616;2022-12-29T03:51:03;99591.50;;;8.70;96.67
71805;BME280;59654;52.216;5.616;2022-12-29T03:51:33;99599.47;;;8.70;95.81
71805;BME280;59654;52.216;5.616;2022-12-29T03:52:05;99605.56;;;8.72;95.75
71805;BME280;59654;52.216;5.616;2022-12-29T03:52:40;99608.16;;;8.74;95.69
71805;BME280;59654;52.216;5.616;2022-12-29T03:53:11;99610.63;;;8.78;95.98
71805;BME280;59654;52.216;5.616;2022-12-29T03:53:43;99605.44;;;8.75;95.49
71805;BME280;59654;52.216;5.616;2022-12-29T03:54:13;99599.41;;;8.72;95.87
71805;BME280;59654;52.216;5.616;2022-12-29T03:54:44;99608.31;;;8.71;96.28
71805;BME280;59654;52.216;5.616;2022-12-29T03:55:16;99597.69;;;8.71;95.46
71805;BME280;59654;52.216;5.616;2022-12-29T03:55:47;99600.41;;;8.69;95.61
71805;BME280;59654;52.216;5.616;2022-12-29T03:56:18;99596.06;;;8.68;96.47
71805;BME280;59654;52.216;5.616;2022-12-29T03:56:49;99593.78;;;8.61;95.51
71805;BME280;59654;52.216;5.616;2022-12-29T03:57:25;99594.72;;;8.60;95.96
71805;BME280;59654;52.216;5.616;2022-12-29T03:58:04;99595.44;;;8.63;96.79
71805;BME280;59654;52.216;5.616;2022-12-29T03:58:53;99591.97;;;8.61;96.33